createdAt,value
2023-09-12T00:01:14.365Z,22.25
2023-09-12T00:03:42.206Z,22.21
2023-09-12T00:06:09.720Z,22.20
2023-09-12T00:08:37.177Z,22.15
2023-09-12T00:11:07.667Z,22.10
2023-09-12T00:13:35.129Z,22.13
2023-09-12T00:16:03.035Z,22.18
2023-09-12T00:18:31.023Z,22.09
2023-09-12T00:21:00.596Z,22.12
2023-09-12T00:23:28.700Z,22.10
2023-09-12T00:25:56.454Z,22.04
2023-09-12T00:28:23.896Z,22.09
2023-09-12T00:30:53.268Z,22.09
2023-09-12T00:33:21.287Z,22.08
2023-09-12T00:35:48.826Z,22.10
2023-09-12T00:38:16.337Z,22.12
2023-09-12T00:40:44.092Z,22.18
2023-09-12T00:43:12.026Z,22.21
2023-09-12T00:45:39.818Z,22.20
2023-09-12T00:48:08.530Z,22.20
2023-09-12T00:50:36.493Z,22.05
2023-09-12T00:53:04.653Z,22.03
2023-09-12T00:55:34.166Z,22.04
2023-09-12T00:58:02.444Z,22.04
2023-09-12T01:00:30.216Z,22.13
2023-09-12T01:02:58.568Z,22.23
2023-09-12T01:05:26.159Z,22.08
2023-09-12T01:07:53.894Z,21.95
2023-09-12T01:10:21.654Z,21.86
2023-09-12T01:12:49.149Z,21.95
2023-09-12T01:15:17.719Z,21.94
2023-09-12T01:17:46.466Z,21.90
2023-09-12T01:20:17.581Z,21.89
2023-09-12T01:22:48.370Z,21.86
2023-09-12T01:25:40.478Z,21.84
2023-09-12T01:28:10.631Z,21.99
2023-09-12T01:30:40.551Z,21.89
2023-09-12T01:33:09.200Z,22.01
2023-09-12T01:35:36.709Z,21.90
2023-09-12T01:38:04.409Z,21.78
2023-09-12T01:40:52.246Z,21.82
2023-09-12T01:43:23.066Z,21.85
2023-09-12T01:45:56.514Z,21.71
2023-09-12T01:48:28.047Z,21.74
2023-09-12T01:50:55.961Z,21.73
2023-09-12T01:53:23.739Z,21.92
2023-09-12T01:55:51.319Z,21.62
2023-09-12T01:58:19.185Z,21.60
2023-09-12T02:00:46.705Z,21.63
2023-09-12T02:03:14.748Z,21.72
2023-09-12T02:05:42.398Z,21.58
2023-09-12T02:08:09.919Z,21.58
2023-09-12T02:10:37.716Z,21.67
2023-09-12T02:13:05.213Z,21.64
2023-09-12T02:15:32.886Z,21.61
2023-09-12T02:18:01.071Z,21.60
2023-09-12T02:20:28.922Z,21.59
2023-09-12T02:22:56.501Z,21.55
2023-09-12T02:25:23.948Z,21.51
2023-09-12T02:27:51.738Z,21.49
2023-09-12T02:30:19.570Z,21.55
2023-09-12T02:32:47.121Z,21.48
2023-09-12T02:35:15.053Z,21.50
2023-09-12T02:37:42.830Z,21.54
2023-09-12T02:40:13.055Z,21.49
2023-09-12T02:42:40.996Z,21.55
2023-09-12T02:45:08.921Z,21.54
2023-09-12T02:47:36.919Z,21.44
2023-09-12T02:50:05.549Z,21.48
2023-09-12T02:52:33.212Z,21.38
2023-09-12T02:55:00.772Z,21.36
2023-09-12T02:57:28.560Z,21.40
2023-09-12T02:59:56.234Z,21.34
2023-09-12T03:02:23.827Z,21.29
2023-09-12T03:04:52.250Z,21.32
2023-09-12T03:07:19.672Z,21.25
2023-09-12T03:09:51.469Z,21.24
2023-09-12T03:12:19.258Z,21.29
2023-09-12T03:14:46.711Z,21.27
2023-09-12T03:17:14.531Z,21.18
2023-09-12T03:19:42.249Z,21.15
2023-09-12T03:22:09.954Z,21.18
2023-09-12T03:24:37.422Z,21.20
2023-09-12T03:27:05.368Z,21.14
2023-09-12T03:29:34.295Z,21.18
2023-09-12T03:32:01.865Z,21.11
2023-09-12T03:34:29.681Z,21.12
2023-09-12T03:36:57.109Z,21.16
2023-09-12T03:39:24.570Z,21.15
2023-09-12T03:41:52.360Z,21.17
2023-09-12T03:44:19.977Z,21.18
2023-09-12T03:46:47.555Z,21.12
2023-09-12T03:49:15.325Z,21.14
2023-09-12T03:51:42.846Z,21.13
2023-09-12T03:54:10.431Z,21.25
2023-09-12T03:56:38.406Z,21.18
2023-09-12T03:59:06.625Z,21.16
2023-09-12T04:01:34.146Z,21.13
2023-09-12T04:04:04.174Z,21.10
2023-09-12T04:06:32.193Z,21.11
2023-09-12T04:08:59.767Z,21.02
2023-09-12T04:11:35.770Z,21.00
2023-09-12T04:14:07.560Z,21.00
2023-09-12T04:16:35.447Z,20.90
2023-09-12T04:19:04.390Z,20.81
2023-09-12T04:21:32.166Z,20.81
2023-09-12T04:24:01.112Z,20.81
2023-09-12T04:26:28.613Z,20.75
2023-09-12T04:28:56.142Z,20.78
2023-09-12T04:31:24.037Z,20.85
2023-09-12T04:33:54.830Z,20.77
2023-09-12T04:36:23.795Z,20.81
2023-09-12T04:38:51.620Z,20.75
2023-09-12T04:41:19.173Z,20.83
2023-09-12T04:43:46.678Z,20.82
2023-09-12T04:46:14.886Z,20.85
2023-09-12T04:48:42.725Z,20.93
2023-09-12T04:51:10.613Z,21.08
2023-09-12T04:53:38.440Z,21.18
2023-09-12T04:56:07.577Z,21.33
2023-09-12T04:58:35.138Z,21.56
2023-09-12T05:01:03.614Z,21.62
2023-09-12T05:03:31.263Z,21.83
2023-09-12T05:05:59.335Z,22.01
2023-09-12T05:08:27.237Z,22.15
2023-09-12T05:10:54.886Z,22.29
2023-09-12T05:13:22.521Z,22.43
2023-09-12T05:15:50.617Z,22.50
2023-09-12T05:18:18.524Z,22.53
2023-09-12T05:20:46.440Z,22.69
2023-09-12T05:23:14.161Z,22.81
2023-09-12T05:25:41.771Z,22.87
2023-09-12T05:28:09.364Z,22.90
2023-09-12T05:30:37.445Z,23.00
2023-09-12T05:33:05.233Z,23.08
2023-09-12T05:35:33.325Z,23.11
2023-09-12T05:38:01.089Z,22.94
2023-09-12T05:40:28.555Z,22.97
2023-09-12T05:42:56.059Z,23.01
2023-09-12T05:45:24.593Z,22.90
2023-09-12T05:47:53.145Z,23.00
2023-09-12T05:50:20.743Z,23.06
2023-09-12T05:52:48.725Z,22.99
2023-09-12T05:55:16.767Z,23.03
2023-09-12T05:57:44.572Z,23.03
2023-09-12T06:00:13.331Z,23.01
2023-09-12T06:02:43.356Z,22.95
2023-09-12T06:05:10.989Z,23.01
2023-09-12T06:07:41.970Z,23.14
2023-09-12T06:10:12.717Z,23.05
2023-09-12T06:12:40.210Z,23.13
2023-09-12T06:15:08.065Z,23.32
2023-09-12T06:17:35.930Z,23.40
2023-09-12T06:20:07.459Z,23.58
2023-09-12T06:22:35.267Z,23.68
2023-09-12T06:25:03.070Z,23.51
2023-09-12T06:27:31.981Z,23.59
2023-09-12T06:29:59.527Z,23.77
2023-09-12T06:32:27.324Z,23.77
2023-09-12T06:34:54.835Z,23.66
2023-09-12T06:37:22.330Z,23.98
2023-09-12T06:39:51.958Z,24.16
2023-09-12T06:42:20.030Z,24.34
2023-09-12T06:44:47.499Z,24.01
2023-09-12T06:47:15.249Z,24.14
2023-09-12T06:49:42.784Z,24.08
2023-09-12T06:52:10.893Z,24.10
2023-09-12T06:54:38.847Z,24.23
2023-09-12T06:57:06.342Z,24.35
2023-09-12T06:59:34.050Z,24.41
2023-09-12T07:02:01.844Z,24.46
2023-09-12T07:04:29.341Z,24.46
2023-09-12T07:06:56.862Z,24.52
2023-09-12T07:09:25.812Z,24.56
2023-09-12T07:11:53.508Z,24.56
2023-09-12T07:14:21.965Z,24.46
2023-09-12T07:16:49.658Z,24.64
2023-09-12T07:19:17.173Z,24.82
2023-09-12T07:21:44.698Z,24.85
2023-09-12T07:24:12.582Z,25.15
2023-09-12T07:26:40.171Z,25.15
2023-09-12T07:29:08.298Z,25.32
2023-09-12T07:31:36.196Z,25.45
2023-09-12T07:34:05.008Z,25.60
2023-09-12T07:36:34.314Z,25.69
2023-09-12T07:39:02.144Z,25.93
2023-09-12T07:41:30.031Z,26.24
2023-09-12T07:43:57.528Z,26.41
2023-09-12T07:46:25.398Z,26.57
2023-09-12T07:48:53.893Z,26.56
2023-09-12T07:51:21.522Z,26.53
2023-09-12T07:53:49.543Z,26.92
2023-09-12T07:56:16.985Z,26.82
2023-09-12T07:58:44.415Z,27.27
2023-09-12T08:01:12.216Z,26.87
2023-09-12T08:03:41.423Z,27.20
2023-09-12T08:06:09.777Z,27.09
2023-09-12T08:08:37.250Z,27.20
2023-09-12T08:11:05.098Z,27.48
2023-09-12T08:13:32.560Z,27.57
2023-09-12T08:16:00.530Z,27.75
2023-09-12T08:18:30.824Z,27.65
2023-09-12T08:20:58.702Z,28.04
2023-09-12T08:23:26.312Z,28.11
2023-09-12T08:25:54.097Z,27.72
2023-09-12T08:28:21.558Z,27.45
2023-09-12T08:30:49.160Z,28.14
2023-09-12T08:33:17.096Z,28.10
2023-09-12T08:35:44.684Z,28.49
2023-09-12T08:38:13.053Z,28.47
2023-09-12T08:40:41.727Z,28.22
2023-09-12T08:43:09.722Z,28.55
2023-09-12T08:45:37.318Z,28.74
2023-09-12T08:48:05.865Z,28.50
2023-09-12T08:50:35.260Z,28.73
2023-09-12T08:53:07.102Z,28.70
2023-09-12T08:55:37.689Z,28.70
2023-09-12T08:58:06.511Z,28.71
2023-09-12T09:00:35.080Z,28.63
2023-09-12T09:03:04.137Z,28.57
2023-09-12T09:05:32.052Z,28.70
2023-09-12T09:08:00.263Z,28.45
2023-09-12T09:10:46.771Z,28.93
2023-09-12T09:13:17.505Z,29.15
2023-09-12T09:15:45.309Z,29.06
2023-09-12T09:18:13.874Z,28.94
2023-09-12T09:20:42.608Z,29.16
2023-09-12T09:23:11.883Z,29.28
2023-09-12T09:25:44.448Z,29.31
2023-09-12T09:28:20.871Z,29.60
2023-09-12T09:30:50.310Z,29.64
2023-09-12T09:33:18.293Z,29.66
2023-09-12T09:35:50.250Z,29.25
2023-09-12T09:38:20.827Z,29.52
2023-09-12T09:40:49.305Z,29.50
2023-09-12T09:43:23.802Z,29.77
2023-09-12T09:45:51.944Z,29.57
2023-09-12T09:48:24.062Z,29.56
2023-09-12T09:50:53.812Z,29.96
2023-09-12T09:53:27.784Z,29.95
2023-09-12T09:56:12.647Z,29.92
2023-09-12T09:58:48.338Z,30.10
2023-09-12T10:01:24.778Z,30.45
2023-09-12T10:03:52.715Z,30.39
2023-09-12T10:06:21.101Z,30.37
2023-09-12T10:08:53.021Z,30.64
2023-09-12T10:11:24.136Z,30.27
2023-09-12T10:13:56.883Z,30.48
2023-09-12T10:16:32.729Z,30.71
2023-09-12T10:19:28.165Z,30.89
2023-09-12T10:21:59.037Z,30.68
2023-09-12T10:24:28.808Z,30.91
2023-09-12T10:26:57.068Z,31.10
2023-09-12T10:29:24.526Z,30.57
2023-09-12T10:31:52.463Z,30.79
2023-09-12T10:34:21.431Z,30.81
2023-09-12T10:36:49.168Z,30.98
2023-09-12T10:39:16.913Z,31.15
2023-09-12T10:41:44.718Z,31.21
2023-09-12T10:44:15.473Z,31.19
2023-09-12T10:46:43.823Z,30.91
2023-09-12T10:49:13.073Z,31.14
2023-09-12T10:51:41.814Z,31.31
2023-09-12T10:54:10.909Z,30.82
2023-09-12T10:56:38.606Z,31.05
2023-09-12T10:59:05.989Z,31.28
2023-09-12T11:01:34.822Z,31.37
2023-09-12T11:04:21.217Z,31.51
2023-09-12T11:06:49.198Z,31.19
2023-09-12T11:09:26.466Z,31.16
2023-09-12T11:12:04.114Z,31.35
2023-09-12T11:14:33.281Z,31.74
2023-09-12T11:17:10.038Z,31.84
2023-09-12T11:19:50.612Z,31.98
2023-09-12T11:22:25.257Z,32.09
2023-09-12T11:24:53.722Z,32.29
2023-09-12T11:27:21.353Z,32.16
2023-09-12T11:29:49.102Z,31.90
2023-09-12T11:32:32.950Z,31.93
2023-09-12T11:35:01.246Z,32.11
2023-09-12T11:37:30.867Z,31.93
2023-09-12T11:40:01.238Z,32.08
2023-09-12T11:42:29.097Z,32.13
2023-09-12T11:44:57.027Z,32.14
2023-09-12T11:47:24.581Z,32.24
2023-09-12T11:49:52.432Z,31.79
2023-09-12T11:52:21.320Z,32.04
2023-09-12T11:54:49.531Z,31.97
2023-09-12T11:57:17.747Z,32.09
2023-09-12T11:59:46.431Z,32.03
2023-09-12T12:02:14.940Z,32.18
2023-09-12T12:04:43.080Z,32.33
2023-09-12T12:07:11.865Z,32.37
2023-09-12T12:09:39.953Z,32.15
2023-09-12T12:12:15.195Z,32.32
2023-09-12T12:14:42.986Z,32.22
2023-09-12T12:17:11.466Z,32.12
2023-09-12T12:19:39.957Z,32.13
2023-09-12T12:22:08.882Z,31.92
2023-09-12T12:24:46.748Z,31.97
2023-09-12T12:27:17.529Z,32.27
2023-09-12T12:29:46.656Z,32.30
2023-09-12T12:32:17.078Z,32.23
2023-09-12T12:35:10.622Z,32.38
2023-09-12T12:37:38.328Z,32.29
2023-09-12T12:40:07.131Z,31.98
2023-09-12T12:42:48.263Z,32.25
2023-09-12T12:45:23.302Z,32.38
2023-09-12T12:47:59.550Z,32.29
2023-09-12T12:50:27.870Z,32.25
2023-09-12T12:52:55.388Z,32.34
2023-09-12T12:55:23.005Z,32.40
2023-09-12T12:57:50.769Z,31.87
2023-09-12T13:00:20.120Z,32.17
2023-09-12T13:02:47.806Z,32.05
2023-09-12T13:05:29.725Z,32.19
2023-09-12T13:07:57.350Z,32.12
2023-09-12T13:10:25.220Z,32.34
2023-09-12T13:12:52.833Z,32.17
2023-09-12T13:15:20.380Z,32.11
2023-09-12T13:17:48.170Z,32.18
2023-09-12T13:20:15.675Z,32.22
2023-09-12T13:22:44.527Z,32.04
2023-09-12T13:25:12.427Z,31.97
2023-09-12T13:27:40.024Z,32.05
2023-09-12T13:30:08.100Z,31.97
2023-09-12T13:32:35.953Z,32.06
2023-09-12T13:35:03.995Z,32.02
2023-09-12T13:37:32.039Z,32.12
2023-09-12T13:40:00.144Z,32.04
2023-09-12T13:42:32.107Z,31.99
2023-09-12T13:44:59.970Z,32.16
2023-09-12T13:47:27.445Z,32.30
2023-09-12T13:49:54.958Z,32.03
2023-09-12T13:52:22.789Z,32.01
2023-09-12T13:54:50.367Z,31.90
2023-09-12T13:57:18.104Z,32.18
2023-09-12T13:59:46.874Z,32.02
2023-09-12T14:02:15.008Z,32.13
2023-09-12T14:04:44.227Z,32.10
2023-09-12T14:07:12.468Z,31.98
2023-09-12T14:09:41.135Z,31.94
2023-09-12T14:12:21.125Z,32.07
2023-09-12T14:15:04.451Z,31.72
2023-09-12T14:17:36.594Z,31.71
2023-09-12T14:20:05.165Z,31.77
2023-09-12T14:22:33.239Z,31.73
2023-09-12T14:25:03.137Z,31.73
2023-09-12T14:27:34.254Z,31.89
2023-09-12T14:30:04.624Z,31.77
2023-09-12T14:32:33.058Z,31.48
2023-09-12T14:35:00.773Z,31.50
2023-09-12T14:37:29.669Z,31.74
2023-09-12T14:39:57.772Z,31.60
2023-09-12T14:42:26.619Z,31.65
2023-09-12T14:44:54.407Z,31.63
2023-09-12T14:47:22.997Z,31.49
2023-09-12T14:49:52.495Z,31.38
2023-09-12T14:52:26.974Z,31.33
2023-09-12T14:54:56.316Z,31.18
2023-09-12T14:57:25.376Z,30.98
2023-09-12T14:59:53.573Z,31.02
2023-09-12T15:02:21.734Z,31.00
2023-09-12T15:04:51.040Z,31.06
2023-09-12T15:07:19.279Z,30.98
2023-09-12T15:09:47.575Z,30.89
2023-09-12T15:12:16.246Z,30.92
2023-09-12T15:14:44.289Z,30.88
2023-09-12T15:17:12.237Z,30.93
2023-09-12T15:19:40.329Z,30.85
2023-09-12T15:22:08.183Z,30.72
2023-09-12T15:24:35.900Z,30.56
2023-09-12T15:27:04.645Z,30.64
2023-09-12T15:29:32.615Z,30.57
2023-09-12T15:32:01.553Z,30.41
2023-09-12T15:34:29.483Z,30.47
2023-09-12T15:39:43.694Z,30.27
2023-09-12T15:42:24.770Z,30.13
2023-09-12T15:45:02.670Z,30.05
2023-09-12T15:47:32.469Z,29.81
2023-09-12T15:50:01.673Z,29.72
2023-09-12T15:52:29.780Z,29.77
2023-09-12T15:54:57.890Z,29.68
2023-09-12T15:57:26.130Z,29.55
2023-09-12T15:59:54.045Z,29.57
2023-09-12T16:02:22.197Z,29.48
2023-09-12T16:04:50.318Z,29.41
2023-09-12T16:07:18.945Z,29.34
2023-09-12T16:09:48.521Z,29.26
2023-09-12T16:12:16.598Z,29.22
2023-09-12T16:14:44.459Z,29.06
2023-09-12T16:17:12.229Z,29.02
2023-09-12T16:19:40.733Z,29.00
2023-09-12T16:22:11.075Z,28.98
2023-09-12T16:24:39.319Z,28.81
2023-09-12T16:27:08.211Z,28.83
2023-09-12T16:29:37.531Z,28.87
2023-09-12T16:32:06.247Z,28.88
2023-09-12T16:34:36.093Z,28.85
2023-09-12T16:37:04.174Z,28.79
2023-09-12T16:39:35.490Z,28.72
2023-09-12T16:42:04.622Z,28.69
2023-09-12T16:44:32.532Z,28.60
2023-09-12T16:47:00.577Z,28.53
2023-09-12T16:49:29.505Z,28.51
2023-09-12T16:51:58.573Z,28.42
2023-09-12T16:54:28.571Z,28.36
2023-09-12T16:56:58.640Z,28.31
2023-09-12T16:59:26.543Z,28.29
2023-09-12T17:01:54.765Z,28.22
2023-09-12T17:04:23.026Z,28.09
2023-09-12T17:06:50.971Z,28.07
2023-09-12T17:09:19.890Z,27.99
2023-09-12T17:11:49.266Z,27.94
2023-09-12T17:14:17.820Z,27.89
2023-09-12T17:16:46.565Z,27.78
2023-09-12T17:19:15.244Z,27.77
2023-09-12T17:21:43.381Z,27.64
2023-09-12T17:24:16.823Z,27.58
2023-09-12T17:26:44.883Z,27.50
2023-09-12T17:29:13.583Z,27.48
2023-09-12T17:31:41.994Z,27.42
2023-09-12T17:34:10.299Z,27.34
2023-09-12T17:36:45.093Z,27.34
2023-09-12T17:39:17.450Z,27.36
2023-09-12T17:41:46.668Z,27.30
2023-09-12T17:44:14.126Z,27.19
2023-09-12T17:46:42.310Z,27.15
2023-09-12T17:49:11.940Z,27.09
2023-09-12T17:51:43.930Z,27.10
2023-09-12T17:54:12.099Z,26.99
2023-09-12T17:56:41.989Z,27.02
2023-09-12T17:59:13.035Z,26.90
2023-09-12T18:01:44.512Z,26.88
2023-09-12T18:04:14.866Z,26.82
2023-09-12T18:06:46.998Z,26.79
2023-09-12T18:09:15.311Z,26.75
2023-09-12T18:11:42.824Z,26.74
2023-09-12T18:14:12.366Z,26.67
2023-09-12T18:16:41.039Z,26.57
2023-09-12T18:19:11.375Z,26.57
2023-09-12T18:21:39.254Z,26.50
2023-09-12T18:24:09.362Z,26.48
2023-09-12T18:26:38.994Z,26.38
2023-09-12T18:29:10.585Z,26.35
2023-09-12T18:31:40.973Z,26.38
2023-09-12T18:34:11.376Z,26.34
2023-09-12T18:36:42.868Z,26.31
2023-09-12T18:39:12.422Z,26.24
2023-09-12T18:41:41.604Z,26.19
2023-09-12T18:44:16.967Z,26.19
2023-09-12T18:46:45.596Z,26.18
2023-09-12T18:49:16.952Z,26.07
2023-09-12T18:51:45.547Z,26.04
2023-09-12T18:54:21.380Z,26.08
2023-09-12T18:56:51.627Z,26.02
2023-09-12T18:59:22.692Z,25.96
2023-09-12T19:01:52.698Z,25.90
2023-09-12T19:04:27.292Z,25.92
2023-09-12T19:06:59.731Z,25.85
2023-09-12T19:09:28.628Z,25.85
2023-09-12T19:11:57.260Z,25.82
2023-09-12T19:14:27.696Z,25.76
2023-09-12T19:16:56.552Z,25.68
2023-09-12T19:19:25.689Z,25.68
2023-09-12T19:21:58.370Z,25.64
2023-09-12T19:24:27.892Z,25.63
2023-09-12T19:26:56.833Z,25.64
2023-09-12T19:29:26.458Z,25.57
2023-09-12T19:31:55.803Z,25.61
2023-09-12T19:34:26.544Z,25.62
2023-09-12T19:36:56.555Z,25.60
2023-09-12T19:39:26.438Z,25.51
2023-09-12T19:41:56.610Z,25.53
2023-09-12T19:44:25.330Z,25.48
2023-09-12T19:46:53.877Z,25.48
2023-09-12T19:49:25.069Z,25.38
2023-09-12T19:51:54.305Z,25.38
2023-09-12T19:54:24.520Z,25.39
2023-09-12T19:56:54.114Z,25.36
2023-09-12T19:59:25.460Z,25.33
2023-09-12T20:01:56.983Z,25.29
2023-09-12T20:04:33.396Z,25.27
2023-09-12T20:07:06.577Z,25.13
2023-09-12T20:09:36.014Z,25.11
2023-09-12T20:12:04.508Z,25.03
2023-09-12T20:14:32.298Z,25.13
2023-09-12T20:17:00.875Z,25.07
2023-09-12T20:19:30.796Z,25.06
2023-09-12T20:21:58.549Z,25.05
2023-09-12T20:24:28.250Z,25.01
2023-09-12T20:26:56.528Z,25.02
2023-09-12T20:29:24.249Z,24.86
2023-09-12T20:31:52.521Z,24.97
2023-09-12T20:34:21.294Z,25.00
2023-09-12T20:36:50.750Z,24.92
2023-09-12T20:39:26.745Z,24.94
2023-09-12T20:42:07.531Z,25.00
2023-09-12T20:44:36.385Z,24.98
2023-09-12T20:47:04.614Z,24.85
2023-09-12T20:49:33.011Z,24.79
2023-09-12T20:52:02.750Z,24.79
2023-09-12T20:54:30.960Z,24.75
2023-09-12T20:56:58.643Z,24.73
2023-09-12T20:59:27.037Z,24.57
2023-09-12T21:01:54.943Z,24.66
2023-09-12T21:04:22.464Z,24.68
2023-09-12T21:06:50.265Z,24.62
2023-09-12T21:09:17.866Z,24.56
2023-09-12T21:11:46.503Z,24.55
2023-09-12T21:14:15.185Z,24.49
2023-09-12T21:16:42.756Z,24.46
2023-09-12T21:19:10.368Z,24.40
2023-09-12T21:21:38.176Z,24.32
2023-09-12T21:24:05.762Z,24.33
2023-09-12T21:26:33.195Z,24.29
2023-09-12T21:29:00.915Z,24.32
2023-09-12T21:31:28.491Z,24.24
2023-09-12T21:33:56.027Z,24.21
2023-09-12T21:36:24.910Z,24.15
2023-09-12T21:38:52.350Z,24.18
2023-09-12T21:41:19.817Z,24.16
2023-09-12T21:43:47.552Z,24.11
2023-09-12T21:46:15.162Z,24.14
2023-09-12T21:48:42.667Z,24.05
2023-09-12T21:51:11.919Z,24.06
2023-09-12T21:53:39.570Z,24.02
2023-09-12T21:56:07.042Z,23.97
2023-09-12T21:58:34.897Z,23.96
2023-09-12T22:01:02.460Z,23.92
2023-09-12T22:03:30.308Z,23.90
2023-09-12T22:05:57.792Z,23.88
2023-09-12T22:08:25.199Z,23.91
2023-09-12T22:10:52.902Z,23.87
2023-09-12T22:13:20.291Z,23.83
2023-09-12T22:15:47.936Z,23.85
2023-09-12T22:18:15.729Z,23.78
2023-09-12T22:20:43.136Z,23.77
2023-09-12T22:23:11.512Z,23.70
2023-09-12T22:25:39.230Z,23.66
2023-09-12T22:28:06.781Z,23.64
2023-09-12T22:30:34.270Z,23.63
2023-09-12T22:33:02.029Z,23.63
2023-09-12T22:35:29.514Z,23.64
2023-09-12T22:37:57.325Z,23.59
2023-09-12T22:40:25.006Z,23.58
2023-09-12T22:42:52.487Z,23.64
2023-09-12T22:45:19.932Z,23.53
2023-09-12T22:47:47.765Z,23.40
2023-09-12T22:50:15.211Z,23.41
2023-09-12T22:52:42.633Z,23.31
2023-09-12T22:55:10.397Z,23.32
2023-09-12T22:57:39.310Z,23.31
2023-09-12T23:00:09.673Z,23.36
2023-09-12T23:02:38.069Z,23.34
2023-09-12T23:05:06.107Z,23.27
2023-09-12T23:07:35.326Z,23.22
2023-09-12T23:10:04.774Z,23.29
2023-09-12T23:12:32.348Z,23.33
2023-09-12T23:14:59.919Z,23.29
2023-09-12T23:17:27.602Z,23.25
2023-09-12T23:19:55.112Z,23.23
2023-09-12T23:22:22.917Z,23.21
2023-09-12T23:24:50.683Z,23.18
2023-09-12T23:27:18.237Z,23.25
2023-09-12T23:29:46.074Z,23.23
2023-09-12T23:32:13.717Z,23.18
2023-09-12T23:34:41.327Z,23.19
2023-09-12T23:37:08.826Z,23.21
2023-09-12T23:39:36.813Z,23.12
2023-09-12T23:42:04.406Z,23.11
2023-09-12T23:44:33.390Z,23.08
2023-09-12T23:47:01.406Z,23.08
2023-09-12T23:49:28.978Z,23.01
2023-09-12T23:51:56.468Z,23.00
2023-09-12T23:54:26.332Z,22.94
2023-09-12T23:56:53.831Z,22.88
2023-09-12T23:59:21.269Z,22.86
